Pagrindinis puslapis
METAR-TAF:

METAR-TAF

Oro uostai :

Sarbriukenas, Vokietija

platuma: 49-13N, ilguma: 007-07E, Aukštis: 322 m

Dabartinis oras

Ataskaita buvo paskelbta 22 minutes, ne 17:20 UTC
Vėjas 10 kt iš Šiaurės/Šiaurės Rytų
Temperatūra 7°C
Drėgmė 45%
Slėgis 1025 hPa
Matomumas 10 km arba daugiau
Mažai debesys ne aukštis 3300 ft, Liūtiniai kamuoliniai debesys.

METAR: EDDR 151720Z 03010KT 9999 FEW033CB 07/M04 Q1025 NOSIG

Laikas: 19:42 (17:42 UTC)

Prognozė

Ataskaita buvo paskelbta 42 minutes, ne 17:00 UTC
Prognozė galioja nuo 15 metu 18 UTC su 16 metu 18 UTC
Vėjas 10 kt iš Šiaurės Rytų
Matomumas 10 km arba daugiau
Mažai debesys ne aukštis 4000 ft
Tapsmas
nuo 15 metu 18 UTC su 15 metu 20 UTC
Vėjas 5 kt iš Šiaurės Rytų
Tapsmas
nuo 16 metu 06 UTC su 16 metu 08 UTC
Vėjas 10 kt iš Šiaurės Rytų

TAF: EDDR 151700Z 1518/1618 05010KT 9999 FEW040 BECMG 1518/1520 05005KT BECMG 1606/1608 05010KT

Orai ataskaitas ir orų prognozės (METAR, TAF).

turimą stotys yra geltonos ir raudonos taškus žemėlapyje.

Perkelti pele per norėdami pamatyti stoties vardą.

Tada spustelėkite, norėdami matyti oro stebėjimo ir prognozės.

Norėdami pakeisti žemėlapį: spustelėkite ant žalios mygtukų su juodo kryžiaus žemyn,; žalią mygtuką su brūkšneliu, jei norite nutolinti; arba žalių rodyklių gretimoms žemėlapius.


METAR-TAF: